Time;durP1;ratioP1;P1;durP2;ratioP2;P2;SDS_P1;SDS_P2;PMS_P1;PMS_P2;Temp;Humidity;BMP_temperature;BMP_pressure;BME280_temperature;BME280_humidity;BME280_pressure;Samples;Min_cycle;Max_cycle;Signal;HPM_P1;HPM_P2
2021/04/09 00:00:18;;;;;;;6.35;4.15;;;;;;;2.89;64.13;101191.31;3551712;40;20061;-50
2021/04/09 00:02:45;;;;;;;7.07;3.75;;;;;;;2.75;65.00;101185.38;3550802;40;20080;-50
2021/04/09 00:05:14;;;;;;;7.13;3.80;;;;;;;2.84;64.85;101193.56;3551625;40;20049;-54
2021/04/09 00:07:41;;;;;;;6.35;3.90;;;;;;;2.88;64.71;101182.00;3551135;40;20065;-50
2021/04/09 00:10:09;;;;;;;6.25;4.05;;;;;;;2.80;64.98;101179.81;3547138;40;20041;-51
2021/04/09 00:12:37;;;;;;;8.68;4.07;;;;;;;2.53;65.90;101176.38;3553155;40;20065;-52
2021/04/09 00:15:06;;;;;;;7.43;3.90;;;;;;;2.69;65.62;101180.81;3551850;40;20093;-51
2021/04/09 00:17:33;;;;;;;5.72;3.65;;;;;;;2.59;65.83;101173.41;3553038;40;20101;-52
2021/04/09 00:20:00;;;;;;;8.15;4.35;;;;;;;2.66;65.63;101175.53;3553151;40;20054;-52
2021/04/09 00:22:27;;;;;;;7.35;4.28;;;;;;;2.44;66.09;101173.25;3549475;40;20050;-52
2021/04/09 00:24:53;;;;;;;5.90;3.90;;;;;;;2.66;66.00;101173.00;3550927;40;20058;-50
2021/04/09 00:27:20;;;;;;;6.10;4.22;;;;;;;2.62;66.41;101166.00;3554502;40;20420;-50
2021/04/09 00:29:46;;;;;;;6.53;3.85;;;;;;;2.42;67.11;101162.19;3552965;40;20069;-53
2021/04/09 00:32:27;;;;;;;6.32;4.25;;;;;;;2.58;66.40;101161.50;3529745;40;20047;-51
2021/04/09 00:34:57;;;;;;;6.75;3.90;;;;;;;2.23;67.52;101157.56;3529206;40;20086;-55
2021/04/09 00:37:23;;;;;;;5.75;3.95;;;;;;;2.39;67.25;101151.84;3530132;40;20361;-50
2021/04/09 00:39:50;;;;;;;7.45;4.72;;;;;;;2.28;67.23;101145.22;3529187;40;20043;-51
2021/04/09 00:42:22;;;;;;;5.40;4.43;;;;;;;2.46;66.45;101145.56;3529919;40;20069;-52
2021/04/09 00:44:48;;;;;;;7.78;4.18;;;;;;;2.50;66.54;101148.41;3529085;40;20748;-50
2021/04/09 00:47:15;;;;;;;7.38;4.03;;;;;;;2.19;67.27;101142.97;3529730;40;20062;-51
2021/04/09 00:49:42;;;;;;;6.97;4.57;;;;;;;2.34;66.95;101135.50;3528848;40;20050;-51
2021/04/09 00:52:08;;;;;;;6.60;3.83;;;;;;;2.44;66.48;101132.81;3529600;40;20046;-52
2021/04/09 00:54:35;;;;;;;6.15;4.32;;;;;;;2.41;66.35;101135.16;3529062;40;20130;-53
2021/04/09 00:57:04;;;;;;;10.43;4.70;;;;;;;2.43;66.48;101126.00;3528438;40;20078;-52
2021/04/09 00:59:33;;;;;;;5.18;3.90;;;;;;;2.44;66.45;101119.28;3530227;40;20147;-53
2021/04/09 01:02:00;;;;;;;5.60;3.80;;;;;;;2.35;66.77;101123.75;3528888;40;20080;-50
2021/04/09 01:04:26;;;;;;;6.70;3.97;;;;;;;2.19;67.13;101121.88;3550962;40;20042;-49
2021/04/09 01:06:53;;;;;;;7.40;4.07;;;;;;;2.39;66.75;101116.47;3550629;40;20083;-52
2021/04/09 01:09:20;;;;;;;8.02;3.63;;;;;;;2.36;66.78;101120.44;3551500;40;20766;-53
2021/04/09 01:11:46;;;;;;;9.50;4.30;;;;;;;2.19;67.61;101112.66;3550541;40;20089;-51
2021/04/09 01:14:13;;;;;;;7.38;4.80;;;;;;;2.09;67.68;101110.28;3551178;40;20053;-52
2021/04/09 01:16:48;;;;;;;8.88;4.35;;;;;;;2.18;67.33;101115.09;3551531;40;20068;-54
2021/04/09 01:19:34;;;;;;;8.85;4.68;;;;;;;2.15;67.89;101100.59;3548971;40;20399;-56
2021/04/09 01:22:04;;;;;;;10.02;4.68;;;;;;;2.06;67.73;101102.50;3551425;40;20073;-51
2021/04/09 01:24:52;;;;;;;8.50;4.65;;;;;;;2.15;67.52;101098.06;3551426;40;20049;-54
2021/04/09 01:27:51;;;;;;;7.95;4.55;;;;;;;2.18;67.39;101088.16;3548450;40;20049;-53
2021/04/09 01:30:38;;;;;;;8.45;5.25;;;;;;;2.11;67.76;101091.06;3549087;40;20129;-54
2021/04/09 01:33:08;;;;;;;8.30;4.60;;;;;;;2.11;67.60;101077.56;3551109;40;20065;-51
2021/04/09 01:35:39;;;;;;;9.85;5.20;;;;;;;1.98;67.87;101076.72;3550954;40;20297;-53
2021/04/09 01:38:07;;;;;;;10.07;4.93;;;;;;;2.06;67.89;101071.31;3552046;40;20046;-55
2021/04/09 01:40:43;;;;;;;8.77;4.95;;;;;;;2.05;67.41;101065.41;3551110;40;20319;-56
2021/04/09 01:43:12;;;;;;;;;;;;;;;2.04;67.37;101061.13;3546394;40;20098;-51
2021/04/09 01:45:39;;;;;;;10.68;5.28;;;;;;;1.97;67.81;101057.31;3553383;40;20458;-53
2021/04/09 01:48:09;;;;;;;11.07;5.93;;;;;;;1.79;68.22;101056.09;3552958;40;20054;-54
2021/04/09 01:50:36;;;;;;;13.70;5.47;;;;;;;1.96;67.34;101053.03;3553496;40;20073;-52
2021/04/09 01:53:06;;;;;;;9.35;5.35;;;;;;;1.90;67.63;101034.97;3556338;40;20446;-53
2021/04/09 01:55:37;;;;;;;11.13;4.80;;;;;;;1.91;66.96;101048.47;3558884;40;20097;-57
2021/04/09 01:58:04;;;;;;;10.00;5.53;;;;;;;1.87;67.51;101031.38;3555755;40;20058;-54
2021/04/09 02:00:32;;;;;;;10.98;5.47;;;;;;;1.97;67.36;101026.13;3555572;40;20045;-51
2021/04/09 02:03:00;;;;;;;10.90;5.20;;;;;;;1.87;67.27;101018.75;3553778;40;20054;-51
2021/04/09 02:05:28;;;;;;;9.43;4.68;;;;;;;1.85;66.91;101023.69;3554673;40;20351;-53
2021/04/09 02:07:57;;;;;;;9.18;4.65;;;;;;;1.92;67.25;101027.50;3551938;40;20062;-51
2021/04/09 02:10:25;;;;;;;7.78;4.40;;;;;;;1.91;66.92;101013.13;3552875;40;20046;-52
2021/04/09 02:12:53;;;;;;;8.35;5.15;;;;;;;1.90;66.89;101009.72;3552586;40;20072;-53
2021/04/09 02:15:22;;;;;;;8.20;4.57;;;;;;;1.82;66.98;101005.81;3553896;40;20089;-53
2021/04/09 02:17:50;;;;;;;9.40;5.15;;;;;;;1.87;66.86;100993.50;3552078;40;20136;-53
2021/04/09 02:20:20;;;;;;;10.43;5.43;;;;;;;1.77;67.03;101003.00;3552660;40;20061;-49
2021/04/09 02:22:49;;;;;;;8.40;5.00;;;;;;;1.89;66.62;100996.97;3551630;40;20089;-52
2021/04/09 02:25:18;;;;;;;10.98;5.07;;;;;;;1.89;66.62;100995.31;3553383;40;20098;-51
2021/04/09 02:27:47;;;;;;;7.22;4.43;;;;;;;1.82;66.83;100995.72;3551804;40;20617;-52
2021/04/09 02:30:19;;;;;;;9.75;4.85;;;;;;;1.83;66.86;100987.34;3553417;40;20143;-50
2021/04/09 02:32:45;;;;;;;10.57;4.85;;;;;;;1.88;66.93;100991.06;3553421;40;20110;-49
2021/04/09 02:35:13;;;;;;;8.40;4.35;;;;;;;1.79;67.05;100986.28;3555095;40;20058;-52
2021/04/09 02:37:42;;;;;;;10.82;4.78;;;;;;;1.82;67.31;100979.69;3553986;40;20058;-48
2021/04/09 02:40:17;;;;;;;10.00;4.75;;;;;;;1.74;67.38;100976.66;3551385;40;20053;-54
2021/04/09 02:42:46;;;;;;;9.88;4.90;;;;;;;1.87;66.55;100981.75;3553620;40;20145;-51
2021/04/09 02:45:15;;;;;;;10.10;4.60;;;;;;;1.81;66.77;100972.91;3555456;40;20626;-51
2021/04/09 02:47:44;;;;;;;7.43;4.60;;;;;;;1.76;66.70;100965.91;3553785;40;20061;-53
2021/04/09 02:50:25;;;;;;;8.65;4.63;;;;;;;1.70;67.42;100964.59;3547472;40;20116;-54
2021/04/09 02:53:00;;;;;;;7.55;4.07;;;;;;;1.74;66.83;100967.44;3552690;40;20090;-52
2021/04/09 02:55:33;;;;;;;6.93;3.97;;;;;;;1.74;66.82;100972.47;3552662;40;20320;-52
2021/04/09 02:58:00;;;;;;;9.68;4.45;;;;;;;1.81;66.69;100962.81;3550091;40;20076;-53
2021/04/09 03:00:27;;;;;;;8.70;4.78;;;;;;;1.78;66.70;100959.28;3552474;40;20058;-53
2021/04/09 03:02:55;;;;;;;10.05;4.07;;;;;;;1.78;66.61;100954.25;3551429;40;20093;-51
2021/04/09 03:05:23;;;;;;;6.47;4.82;;;;;;;1.78;66.47;100958.41;3552498;40;20056;-51
2021/04/09 03:07:49;;;;;;;8.20;4.70;;;;;;;1.75;66.94;100948.09;3552516;40;20406;-48
2021/04/09 03:10:18;;;;;;;8.07;4.35;;;;;;;1.69;67.14;100947.72;3552760;40;20786;-53
2021/04/09 03:12:45;;;;;;;7.65;4.30;;;;;;;1.59;67.31;100946.25;3551482;40;20082;-52
2021/04/09 03:15:17;;;;;;;10.18;4.60;;;;;;;1.66;67.11;100937.41;3552320;40;20050;-52
2021/04/09 03:17:55;;;;;;;10.05;4.45;;;;;;;1.74;66.62;100932.09;3551258;40;20064;-52
2021/04/09 03:20:23;;;;;;;9.15;4.40;;;;;;;1.71;66.82;100924.34;3552283;40;20056;-52
2021/04/09 03:22:51;;;;;;;8.07;4.07;;;;;;;1.60;67.25;100921.88;3550936;40;20457;-55
2021/04/09 03:25:18;;;;;;;9.70;4.63;;;;;;;1.68;66.83;100919.09;3552409;40;20596;-51
2021/04/09 03:27:44;;;;;;;8.65;4.40;;;;;;;1.59;66.96;100918.50;3551376;40;20061;-50
2021/04/09 03:30:13;;;;;;;5.97;4.18;;;;;;;1.63;67.01;100922.97;3552145;40;20058;-51
2021/04/09 03:32:39;;;;;;;6.57;4.30;;;;;;;1.63;66.81;100920.44;3551389;40;20054;-49
2021/04/09 03:35:06;;;;;;;9.43;4.45;;;;;;;1.53;67.49;100908.88;3551903;40;20427;-53
2021/04/09 03:37:33;;;;;;;7.35;3.92;;;;;;;1.58;67.05;100909.19;3552512;40;20090;-55
2021/04/09 03:40:00;;;;;;;6.65;3.80;;;;;;;1.57;66.99;100904.88;3551740;40;20102;-53
2021/04/09 03:42:26;;;;;;;8.15;3.97;;;;;;;1.57;67.15;100906.53;3551809;40;20316;-53
2021/04/09 03:44:53;;;;;;;6.30;4.30;;;;;;;1.53;67.27;100898.78;3551183;40;20078;-52
2021/04/09 03:47:19;;;;;;;9.23;4.32;;;;;;;1.46;67.68;100899.16;3551804;40;20065;-52
2021/04/09 03:49:46;;;;;;;8.32;4.50;;;;;;;1.46;67.50;100889.06;3551225;40;20046;-52
2021/04/09 03:52:12;;;;;;;7.50;4.30;;;;;;;1.47;67.57;100888.28;3551929;40;20065;-52
2021/04/09 03:54:39;;;;;;;8.43;4.28;;;;;;;1.48;67.45;100886.66;3551385;40;20054;-52
2021/04/09 03:57:06;;;;;;;20.35;6.90;;;;;;;1.40;67.63;100888.66;3551606;40;20046;-54
2021/04/09 03:59:33;;;;;;;8.98;4.07;;;;;;;1.46;67.61;100886.53;3552204;40;20077;-52
2021/04/09 04:02:01;;;;;;;6.38;4.35;;;;;;;1.38;67.80;100886.78;3551527;40;20054;-51
2021/04/09 04:04:28;;;;;;;9.73;4.65;;;;;;;1.39;67.59;100881.00;3551851;40;20064;-53
2021/04/09 04:06:54;;;;;;;6.70;4.50;;;;;;;1.35;68.11;100881.56;3551104;40;20834;-51
2021/04/09 04:09:20;;;;;;;10.48;4.70;;;;;;;1.38;67.81;100876.72;3552046;40;20621;-51
2021/04/09 04:11:47;;;;;;;9.27;4.25;;;;;;;1.35;67.72;100872.34;3548341;40;20082;-50
2021/04/09 04:14:14;;;;;;;7.82;4.32;;;;;;;1.27;68.22;100876.88;3551830;40;20046;-54
2021/04/09 04:16:40;;;;;;;6.47;4.97;;;;;;;1.40;67.62;100875.19;3551196;40;20078;-51
2021/04/09 04:19:07;;;;;;;10.13;4.65;;;;;;;1.36;67.97;100879.13;3551022;40;20053;-52
2021/04/09 04:21:33;;;;;;;8.18;4.93;;;;;;;1.31;68.07;100880.50;3549503;40;20054;-51
2021/04/09 04:24:00;;;;;;;8.73;5.32;;;;;;;1.38;67.47;100875.06;3551359;40;20054;-50
2021/04/09 04:26:27;;;;;;;8.48;4.63;;;;;;;1.36;67.67;100869.06;3551904;40;20463;-52
2021/04/09 04:28:53;;;;;;;7.10;4.70;;;;;;;1.41;67.52;100864.31;3552658;40;20085;-51
2021/04/09 04:31:20;;;;;;;7.38;5.53;;;;;;;1.40;67.52;100862.56;3555788;40;20470;-49
2021/04/09 04:33:47;;;;;;;7.97;4.70;;;;;;;1.28;67.99;100866.00;3553396;40;20054;-51
2021/04/09 04:36:15;;;;;;;9.75;4.53;;;;;;;1.49;67.62;100864.03;3554082;40;20057;-48
2021/04/09 04:38:43;;;;;;;8.18;4.50;;;;;;;1.56;67.16;100869.47;3550029;40;20128;-49
2021/04/09 04:41:09;;;;;;;6.70;4.78;;;;;;;1.64;66.71;100861.59;3553730;40;20064;-52
2021/04/09 04:43:36;;;;;;;8.25;4.28;;;;;;;1.69;66.10;100861.91;3553574;40;20061;-49
2021/04/09 04:46:03;;;;;;;8.27;5.20;;;;;;;1.61;67.01;100863.06;3546958;40;20094;-47
2021/04/09 04:48:29;;;;;;;8.75;5.53;;;;;;;1.63;66.61;100862.38;3547397;40;20054;-50
2021/04/09 04:50:56;;;;;;;10.70;4.75;;;;;;;1.70;66.54;100853.53;3552095;40;20086;-52
2021/04/09 04:53:22;;;;;;;7.72;4.95;;;;;;;1.72;66.25;100857.94;3552101;40;20057;-50
2021/04/09 04:55:49;;;;;;;9.15;5.10;;;;;;;1.66;66.38;100852.47;3551989;40;20452;-50
2021/04/09 04:58:16;;;;;;;7.85;5.00;;;;;;;1.72;66.33;100855.41;3547592;40;20424;-51
2021/04/09 05:00:42;;;;;;;7.32;5.20;;;;;;;1.74;66.62;100858.00;3545309;40;20107;-48
2021/04/09 05:03:09;;;;;;;7.78;5.28;;;;;;;1.81;66.04;100860.16;3545223;40;20470;-49
2021/04/09 05:05:35;;;;;;;8.25;5.13;;;;;;;1.86;66.06;100862.97;3549743;40;20065;-48
2021/04/09 05:08:02;;;;;;;8.45;5.50;;;;;;;1.83;65.81;100856.06;3551777;40;20546;-51
2021/04/09 05:10:29;;;;;;;8.05;5.75;;;;;;;1.89;65.87;100855.56;3551549;40;20050;-47
2021/04/09 05:12:55;;;;;;;7.05;5.10;;;;;;;1.91;65.64;100856.56;3550556;40;20431;-53
2021/04/09 05:15:22;;;;;;;10.23;6.15;;;;;;;1.85;65.70;100851.09;3548754;40;20162;-50
2021/04/09 05:17:49;;;;;;;10.60;5.45;;;;;;;1.98;65.19;100853.63;3550323;40;20062;-50
2021/04/09 05:20:15;;;;;;;8.50;5.50;;;;;;;2.03;64.98;100847.22;3551316;40;20057;-51
2021/04/09 05:22:42;;;;;;;9.35;5.50;;;;;;;2.11;65.16;100845.16;3549296;40;20094;-49
2021/04/09 05:25:09;;;;;;;8.77;5.03;;;;;;;2.18;64.20;100840.59;3551409;40;20443;-49
2021/04/09 05:27:36;;;;;;;13.02;6.20;;;;;;;2.27;63.91;100838.63;3550641;40;20064;-52
2021/04/09 05:30:04;;;;;;;9.02;5.38;;;;;;;2.30;64.12;100833.75;3551182;40;20078;-50
2021/04/09 05:32:31;;;;;;;7.57;5.70;;;;;;;2.37;64.01;100837.53;3551036;40;20082;-51
2021/04/09 05:34:57;;;;;;;7.85;5.90;;;;;;;2.52;63.40;100830.88;3550098;40;20064;-48
2021/04/09 05:37:24;;;;;;;10.93;5.55;;;;;;;2.65;63.15;100832.47;3546808;40;20092;-51
2021/04/09 05:39:51;;;;;;;8.25;5.68;;;;;;;2.64;63.00;100828.22;3550857;40;20061;-49
2021/04/09 05:42:18;;;;;;;8.68;5.78;;;;;;;2.79;62.95;100830.78;3548783;40;20062;-46
2021/04/09 05:44:44;;;;;;;12.48;6.07;;;;;;;2.75;62.75;100836.44;3551063;40;20156;-50
2021/04/09 05:47:11;;;;;;;7.90;4.93;;;;;;;2.85;62.57;100827.72;3551663;40;20091;-49
2021/04/09 05:49:38;;;;;;;10.18;5.57;;;;;;;2.98;61.86;100826.00;3548412;40;20052;-49
2021/04/09 05:52:06;;;;;;;10.02;5.68;;;;;;;3.16;61.56;100825.31;3551710;40;20159;-51
2021/04/09 05:54:37;;;;;;;8.48;5.70;;;;;;;3.28;61.45;100818.41;3551370;40;20069;-52
2021/04/09 05:57:05;;;;;;;8.98;5.60;;;;;;;3.38;60.73;100827.44;3551992;40;20090;-49
2021/04/09 05:59:31;;;;;;;10.23;5.43;;;;;;;3.54;60.66;100815.69;3553315;40;20069;-51
2021/04/09 06:01:58;;;;;;;11.18;6.28;;;;;;;3.69;60.05;100818.19;3550703;40;20089;-51
2021/04/09 06:04:24;;;;;;;11.50;6.28;;;;;;;3.90;59.27;100813.44;3555582;40;20156;-45
2021/04/09 06:06:51;;;;;;;9.50;6.45;;;;;;;3.85;59.25;100819.94;3556278;40;20034;-58
2021/04/09 06:09:18;;;;;;;9.32;5.75;;;;;;;3.90;58.62;100815.13;3554542;40;20093;-46
2021/04/09 06:11:44;;;;;;;9.57;5.55;;;;;;;4.13;58.62;100813.81;3552979;40;20066;-51
2021/04/09 06:14:11;;;;;;;8.07;5.78;;;;;;;4.19;58.04;100815.00;3552385;40;20065;-53
2021/04/09 06:16:38;;;;;;;12.25;6.30;;;;;;;4.32;58.28;100819.94;3552097;40;20069;-45
2021/04/09 06:19:05;;;;;;;9.05;5.53;;;;;;;4.54;56.93;100814.31;3553156;40;20360;-47
2021/04/09 06:21:31;;;;;;;10.45;5.22;;;;;;;4.67;56.86;100813.31;3552555;40;20113;-52
2021/04/09 06:23:58;;;;;;;9.95;5.65;;;;;;;4.81;56.51;100812.34;3551004;40;20424;-54
2021/04/09 06:26:25;;;;;;;8.43;5.75;;;;;;;5.16;56.13;100817.41;3549463;40;20081;-45
2021/04/09 06:28:56;;;;;;;8.90;5.28;;;;;;;5.48;55.05;100808.81;3552415;40;20054;-48
2021/04/09 06:31:23;;;;;;;9.43;6.10;;;;;;;5.61;54.06;100809.47;3552492;40;20066;-48
2021/04/09 06:34:10;;;;;;;8.52;5.50;;;;;;;6.12;53.45;100807.66;3552332;40;20058;-48
2021/04/09 06:36:38;;;;;;;10.70;5.55;;;;;;;6.29;53.58;100812.63;3551884;40;20073;-50
2021/04/09 06:39:05;;;;;;;11.52;5.82;;;;;;;6.34;52.40;100801.00;3552534;40;20050;-47
2021/04/09 06:41:34;;;;;;;9.48;5.68;;;;;;;6.26;51.86;100797.22;3549500;40;20069;-56
2021/04/09 06:44:01;;;;;;;9.60;5.95;;;;;;;5.75;52.63;100796.56;3552010;40;20054;-48
2021/04/09 06:46:28;;;;;;;9.20;4.97;;;;;;;5.80;52.95;100790.03;3552302;40;20058;-50
2021/04/09 06:48:55;;;;;;;8.63;5.72;;;;;;;5.85;52.54;100797.06;3551629;40;20081;-51
2021/04/09 06:51:23;;;;;;;7.72;5.38;;;;;;;5.96;52.58;100791.63;3552310;40;20089;-52
2021/04/09 06:53:50;;;;;;;10.38;5.63;;;;;;;6.50;52.07;100810.16;3551537;40;20093;-45
2021/04/09 06:56:19;;;;;;;9.90;5.05;;;;;;;6.43;50.27;100805.63;3552492;40;20049;-46
2021/04/09 06:58:47;;;;;;;9.10;5.70;;;;;;;6.28;51.25;100801.56;3549366;40;20474;-48
2021/04/09 07:01:16;;;;;;;8.57;5.07;;;;;;;6.21;51.84;100794.47;3549064;40;20085;-53
2021/04/09 07:03:43;;;;;;;9.23;5.05;;;;;;;6.54;51.77;100802.72;3551588;40;20128;-53
2021/04/09 07:06:10;;;;;;;10.50;5.57;;;;;;;7.03;50.10;100796.31;3552097;40;20058;-45
2021/04/09 07:08:41;;;;;;;9.25;5.55;;;;;;;6.82;50.32;100797.13;3550457;40;20054;-53
2021/04/09 07:11:07;;;;;;;7.32;5.22;;;;;;;6.80;50.72;100800.44;3548856;40;20038;-47
2021/04/09 07:13:47;;;;;;;10.18;6.30;;;;;;;6.33;51.82;100794.13;3549123;40;20054;-47
2021/04/09 07:16:13;;;;;;;8.57;5.25;;;;;;;6.74;50.78;100792.53;3552321;40;20113;-46
2021/04/09 07:18:47;;;;;;;7.60;5.07;;;;;;;6.95;49.88;100784.94;3551404;40;20058;-43
2021/04/09 07:21:32;;;;;;;11.63;5.97;;;;;;;8.15;47.46;100787.13;3548981;40;20047;-48
2021/04/09 07:24:14;;;;;;;9.77;6.30;;;;;;;9.02;44.78;100794.50;3551710;40;20058;-51
2021/04/09 07:26:43;;;;;;;9.32;5.57;;;;;;;9.14;44.26;100788.91;3551520;40;20066;-50
2021/04/09 07:29:31;;;;;;;9.02;5.20;;;;;;;9.04;45.19;100779.22;3551539;40;20065;-56
2021/04/09 07:31:58;;;;;;;9.38;4.97;;;;;;;9.48;43.74;100777.22;3551700;40;20447;-54
2021/04/09 07:34:25;;;;;;;6.70;5.00;;;;;;;8.81;44.68;100786.94;3548903;40;20104;-49
2021/04/09 07:36:56;;;;;;;7.95;5.25;;;;;;;8.52;46.10;100779.97;3551398;40;20070;-51
2021/04/09 07:39:35;;;;;;;7.93;5.72;;;;;;;7.68;47.50;100781.94;3551986;40;20396;-52
2021/04/09 07:42:10;;;;;;;7.75;5.20;;;;;;;7.26;48.53;100779.44;3551425;40;20049;-57
2021/04/09 07:44:38;;;;;;;7.35;5.43;;;;;;;7.40;49.31;100776.63;3551167;40;20042;-56
2021/04/09 07:47:14;;;;;;;10.07;6.03;;;;;;;7.56;48.39;100769.56;3552374;40;20096;-49
2021/04/09 07:49:42;;;;;;;9.93;6.07;;;;;;;7.76;48.88;100763.56;3551203;40;20050;-47
2021/04/09 07:52:09;;;;;;;8.02;5.38;;;;;;;7.62;47.96;100762.16;3551542;40;20054;-57
2021/04/09 07:54:37;;;;;;;11.52;5.85;;;;;;;7.58;48.80;100758.66;3551187;40;20104;-47
2021/04/09 07:57:05;;;;;;;10.63;5.95;;;;;;;7.59;49.16;100768.03;3551707;40;20052;-51
2021/04/09 07:59:36;;;;;;;8.32;5.53;;;;;;;8.02;47.07;100761.13;3551217;40;20637;-46
2021/04/09 08:02:04;;;;;;;9.32;6.15;;;;;;;8.61;46.72;100765.00;3551206;40;20053;-51
2021/04/09 08:04:42;;;;;;;11.38;4.95;;;;;;;8.45;46.38;100758.47;3551552;40;20042;-47
2021/04/09 08:07:32;;;;;;;7.80;5.40;;;;;;;8.72;46.38;100758.56;3548785;40;20045;-51
2021/04/09 08:09:59;;;;;;;11.57;4.47;;;;;;;8.75;46.47;100758.66;3544088;40;20090;-56
2021/04/09 08:12:29;;;;;;;10.20;5.82;;;;;;;8.74;46.27;100745.88;3546043;40;20077;-53
2021/04/09 08:14:57;;;;;;;11.18;5.95;;;;;;;8.53;46.37;100748.53;3552179;40;20110;-50
2021/04/09 08:17:24;;;;;;;7.40;5.10;;;;;;;8.89;47.11;100736.16;3552748;40;20054;-53
2021/04/09 08:19:54;;;;;;;9.38;5.70;;;;;;;8.98;46.78;100739.00;3552035;40;20611;-50
2021/04/09 08:22:22;;;;;;;10.90;5.38;;;;;;;8.97;46.21;100729.63;3554233;40;20057;-47
2021/04/09 08:24:49;;;;;;;6.70;5.13;;;;;;;9.05;45.94;100730.72;3552326;40;20105;-50
2021/04/09 08:27:16;;;;;;;8.20;5.72;;;;;;;9.09;45.67;100732.56;3553307;40;20090;-50
2021/04/09 08:29:44;;;;;;;9.55;5.68;;;;;;;9.44;46.07;100736.22;3550060;40;20061;-49
2021/04/09 08:32:11;;;;;;;9.15;5.25;;;;;;;9.49;45.91;100730.41;3554075;40;20054;-52
2021/04/09 08:34:38;;;;;;;7.63;6.05;;;;;;;9.50;45.13;100730.44;3553767;40;20061;-52
2021/04/09 08:37:05;;;;;;;9.48;5.78;;;;;;;9.39;44.52;100724.13;3552807;40;20054;-53
2021/04/09 08:39:41;;;;;;;10.25;5.68;;;;;;;9.27;44.37;100724.59;3552464;40;20076;-50
2021/04/09 08:42:08;;;;;;;8.00;5.25;;;;;;;9.17;44.57;100730.25;3545629;40;20058;-51
2021/04/09 08:44:35;;;;;;;10.55;5.20;;;;;;;9.59;44.38;100720.47;3552701;40;20061;-50
2021/04/09 08:47:03;;;;;;;7.88;5.45;;;;;;;9.65;43.79;100714.69;3550716;40;20066;-50
2021/04/09 08:49:30;;;;;;;8.82;6.45;;;;;;;9.99;45.19;100713.13;3554290;40;20083;-54
2021/04/09 08:52:02;;;;;;;9.55;5.30;;;;;;;10.44;41.95;100719.53;3550908;40;20062;-52
2021/04/09 08:54:30;;;;;;;11.30;5.30;;;;;;;10.91;42.80;100709.63;3552777;40;20066;-50
2021/04/09 08:57:03;;;;;;;5.50;4.55;;;;;;;10.52;41.35;100714.59;3552337;40;20411;-51
2021/04/09 08:59:44;;;;;;;10.32;5.50;;;;;;;10.39;42.36;100710.84;3554897;40;20052;-51
2021/04/09 09:02:15;;;;;;;9.13;5.75;;;;;;;10.58;43.15;100714.75;3546043;40;20053;-48
2021/04/09 09:05:03;;;;;;;9.73;5.45;;;;;;;10.62;42.38;100723.38;3551981;40;20136;-52
2021/04/09 09:09:37;;;;;;;8.48;5.85;;;;;;;10.43;43.03;100715.22;3574761;39;20361;-53
2021/04/09 09:12:04;;;;;;;9.65;5.97;;;;;;;10.61;42.41;100712.28;3560558;40;20049;-49
2021/04/09 09:14:34;;;;;;;11.80;5.75;;;;;;;10.65;42.16;100708.09;3564960;40;20082;-49
2021/04/09 09:17:37;;;;;;;8.30;5.55;;;;;;;11.12;41.80;100709.28;3571071;39;20106;-53
2021/04/09 09:20:11;;;;;;;10.23;5.57;;;;;;;10.93;41.43;100704.53;3578934;39;20053;-52
2021/04/09 09:22:53;;;;;;;12.93;6.25;;;;;;;11.18;41.38;100703.41;3579938;39;20057;-49
2021/04/09 09:25:37;;;;;;;13.63;5.88;;;;;;;11.33;40.84;100703.78;3577502;39;20418;-52
2021/04/09 09:28:09;;;;;;;13.05;5.70;;;;;;;11.17;40.18;100696.56;3580512;39;20072;-55
2021/04/09 09:30:42;;;;;;;10.55;5.55;;;;;;;11.26;40.65;100694.22;3581146;39;20710;-51
2021/04/09 09:33:26;;;;;;;13.88;6.60;;;;;;;11.73;41.16;100696.94;3577409;39;20186;-52
2021/04/09 09:36:10;;;;;;;11.68;5.60;;;;;;;11.63;40.01;100687.34;3580361;39;20084;-54
2021/04/09 09:38:45;;;;;;;10.40;5.72;;;;;;;11.78;41.45;100694.47;3580466;39;20383;-52
2021/04/09 09:41:39;;;;;;;10.90;5.90;;;;;;;11.69;40.49;100690.00;3578051;39;20049;-52
2021/04/09 09:44:28;;;;;;;15.23;5.85;;;;;;;12.65;40.25;100684.19;3580613;39;20048;-53
2021/04/09 09:47:01;;;;;;;8.30;4.85;;;;;;;13.11;39.73;100700.34;3580107;39;20552;-52
2021/04/09 09:49:29;;;;;;;10.73;6.57;;;;;;;12.88;39.31;100694.84;3580709;39;20059;-52
2021/04/09 09:51:56;;;;;;;9.95;6.45;;;;;;;12.95;38.81;100690.69;3580435;39;20495;-54
2021/04/09 09:54:29;;;;;;;10.25;6.90;;;;;;;12.82;37.50;100673.34;3580645;39;20069;-50
2021/04/09 09:56:57;;;;;;;10.32;6.20;;;;;;;13.80;37.31;100680.78;3580517;39;20060;-49
2021/04/09 09:59:27;;;;;;;11.63;6.20;;;;;;;15.10;34.96;100682.06;3580424;39;20056;-54
2021/04/09 10:01:59;;;;;;;11.20;5.50;;;;;;;16.92;30.47;100674.13;3580222;39;20061;-52
2021/04/09 10:04:26;;;;;;;10.27;7.15;;;;;;;18.04;29.21;100682.47;3580628;39;20106;-50
2021/04/09 10:06:53;;;;;;;9.70;7.00;;;;;;;17.84;29.28;100674.78;3580679;39;20061;-52
2021/04/09 10:09:30;;;;;;;8.82;6.82;;;;;;;18.31;28.95;100677.13;3580289;39;20063;-51
2021/04/09 10:11:59;;;;;;;10.98;7.10;;;;;;;19.04;27.57;100678.31;3580153;39;20154;-51
2021/04/09 10:14:28;;;;;;;10.32;6.75;;;;;;;18.18;28.06;100662.50;3581280;39;20052;-53
2021/04/09 10:16:57;;;;;;;10.68;7.05;;;;;;;19.72;26.73;100668.06;3581193;39;20418;-55
2021/04/09 10:19:25;;;;;;;9.30;6.93;;;;;;;20.16;27.02;100660.59;3578295;39;20065;-53
2021/04/09 10:21:52;;;;;;;9.00;6.68;;;;;;;19.27;27.84;100664.22;3573860;40;20132;-51
2021/04/09 10:24:37;;;;;;;9.98;6.88;;;;;;;18.96;27.81;100661.09;3573755;40;20381;-54
2021/04/09 10:27:05;;;;;;;7.53;6.72;;;;;;;20.05;26.13;100656.38;3573682;40;20053;-50
2021/04/09 10:29:38;;;;;;;8.82;6.40;;;;;;;20.45;26.27;100657.53;3574009;40;20362;-51
2021/04/09 10:32:14;;;;;;;11.38;6.72;;;;;;;20.41;25.33;100656.72;3574173;40;20410;-55
2021/04/09 10:34:41;;;;;;;13.35;6.78;;;;;;;19.98;26.26;100652.16;3573723;40;20316;-51
2021/04/09 10:37:21;;;;;;;9.43;6.03;;;;;;;19.48;26.80;100656.22;3570590;40;20081;-52
2021/04/09 10:39:48;;;;;;;9.25;6.68;;;;;;;18.57;28.63;100647.53;3573678;40;20097;-51
2021/04/09 10:42:14;;;;;;;7.80;6.13;;;;;;;19.74;26.29;100650.75;3573473;40;20071;-53
2021/04/09 10:44:41;;;;;;;9.25;6.90;;;;;;;18.58;27.50;100644.09;3573707;40;20328;-54
2021/04/09 10:47:09;;;;;;;8.27;6.50;;;;;;;19.32;26.81;100639.09;3570705;40;20056;-53
2021/04/09 10:49:41;;;;;;;11.07;6.85;;;;;;;19.74;26.93;100629.09;3573599;40;20052;-54
2021/04/09 10:52:13;;;;;;;9.07;6.38;;;;;;;20.77;24.78;100638.84;3570450;40;20041;-53
2021/04/09 10:54:42;;;;;;;8.35;5.85;;;;;;;20.15;25.63;100643.25;3573403;40;20323;-53
2021/04/09 10:57:11;;;;;;;7.07;5.85;;;;;;;18.75;26.72;100623.22;3570667;40;20091;-48
2021/04/09 10:59:45;;;;;;;7.15;5.93;;;;;;;18.69;26.90;100633.66;3573292;40;20065;-53
2021/04/09 11:02:22;;;;;;;9.55;5.55;;;;;;;18.16;28.84;100622.75;3570677;40;20181;-53
2021/04/09 11:04:56;;;;;;;10.88;6.18;;;;;;;19.32;27.17;100626.97;3573557;40;20397;-52
2021/04/09 11:07:42;;;;;;;9.48;5.82;;;;;;;19.72;25.71;100612.66;3573419;40;20349;-54
2021/04/09 11:10:34;;;;;;;10.60;6.35;;;;;;;20.81;25.19;100615.34;3571698;40;20057;-53
2021/04/09 11:13:01;;;;;;;8.80;5.97;;;;;;;21.09;25.57;100610.47;3572888;40;20063;-51
2021/04/09 11:15:46;;;;;;;5.85;5.00;;;;;;;20.57;25.32;100608.81;3573359;40;20513;-53
2021/04/09 11:18:14;;;;;;;7.43;5.28;;;;;;;21.75;23.87;100609.16;3571088;40;20057;-51
2021/04/09 11:20:46;;;;;;;8.00;5.25;;;;;;;22.39;22.84;100616.44;3573600;40;20057;-56
2021/04/09 11:23:14;;;;;;;10.18;6.03;;;;;;;;;;3570908;40;20452;-54
2021/04/09 11:25:45;;;;;;;7.25;5.40;;;;;;;21.62;24.53;100599.88;3573520;40;20551;-52
2021/04/09 11:28:22;;;;;;;6.85;5.68;;;;;;;22.08;23.67;100597.13;3570712;40;20049;-54
2021/04/09 11:31:05;;;;;;;8.40;5.32;;;;;;;21.93;23.82;100594.03;3573608;40;20069;-52
2021/04/09 11:33:39;;;;;;;8.35;5.60;;;;;;;23.00;22.08;100588.78;3573302;40;20033;-56
2021/04/09 11:36:20;;;;;;;5.72;4.78;;;;;;;21.43;24.28;100589.00;3573408;40;20044;-54
2021/04/09 11:38:49;;;;;;;6.55;5.00;;;;;;;22.25;24.26;100595.91;3573584;40;20756;-56
2021/04/09 11:41:26;;;;;;;5.47;3.92;;;;;;;21.55;23.74;100583.53;3573025;40;20049;-52
2021/04/09 11:43:53;;;;;;;7.15;4.13;;;;;;;22.44;22.99;100580.66;3572784;40;20056;-55